createdAt,value
2023-03-26T00:00:25.892Z,67.50
2023-03-26T00:03:14.858Z,67.61
2023-03-26T00:05:45.036Z,67.62
2023-03-26T00:08:14.054Z,67.71
2023-03-26T00:10:42.585Z,67.85
2023-03-26T00:13:10.917Z,67.67
2023-03-26T00:15:39.004Z,67.79
2023-03-26T00:18:09.186Z,67.83
2023-03-26T00:20:38.413Z,68.04
2023-03-26T00:23:08.054Z,68.14
2023-03-26T00:25:38.535Z,67.99
2023-03-26T00:28:07.699Z,67.93
2023-03-26T00:30:36.462Z,67.95
2023-03-26T00:33:04.324Z,68.03
2023-03-26T00:35:32.155Z,68.05
2023-03-26T00:38:01.443Z,68.16
2023-03-26T00:40:32.166Z,68.18
2023-03-26T00:43:00.156Z,68.23
2023-03-26T00:45:28.411Z,68.32
2023-03-26T00:47:56.172Z,68.28
2023-03-26T00:50:24.220Z,68.32
2023-03-26T00:52:52.071Z,68.41
2023-03-26T00:55:19.966Z,68.38
2023-03-26T00:57:47.889Z,68.21
2023-03-26T01:00:18.899Z,68.17
2023-03-26T01:02:46.994Z,68.11
2023-03-26T01:05:36.159Z,68.07
2023-03-26T01:08:05.383Z,68.18
2023-03-26T01:10:38.957Z,68.16
2023-03-26T01:13:08.880Z,68.06
2023-03-26T01:15:41.895Z,68.10
2023-03-26T01:18:10.308Z,68.13
2023-03-26T01:20:46.571Z,68.13
2023-03-26T01:23:19.584Z,68.13
2023-03-26T01:25:52.619Z,67.96
2023-03-26T01:28:21.673Z,67.95
2023-03-26T01:31:01.425Z,67.87
2023-03-26T01:33:45.700Z,67.99
2023-03-26T01:36:21.155Z,68.09
2023-03-26T01:39:00.555Z,67.99
2023-03-26T01:41:31.704Z,67.85
2023-03-26T01:44:18.502Z,67.75
2023-03-26T01:46:47.484Z,67.55
2023-03-26T01:49:15.358Z,67.52
2023-03-26T01:51:43.555Z,67.45
2023-03-26T01:54:14.955Z,67.63
2023-03-26T01:57:06.141Z,67.48
2023-03-26T01:59:52.827Z,67.40
2023-03-26T02:02:21.904Z,67.45
2023-03-26T02:05:16.182Z,67.40
2023-03-26T02:07:51.161Z,67.13
2023-03-26T02:10:22.433Z,67.10
2023-03-26T02:12:50.413Z,67.23
2023-03-26T02:15:18.315Z,67.34
2023-03-26T02:17:47.155Z,67.25
2023-03-26T02:20:16.424Z,67.29
2023-03-26T02:22:46.035Z,67.36
2023-03-26T02:25:17.783Z,67.29
2023-03-26T02:27:46.488Z,67.55
2023-03-26T02:30:16.717Z,67.67
2023-03-26T02:32:46.229Z,67.82
2023-03-26T02:35:14.303Z,67.82
2023-03-26T02:37:47.059Z,67.97
2023-03-26T02:40:18.273Z,68.07
2023-03-26T02:42:47.298Z,68.13
2023-03-26T02:45:15.595Z,68.17
2023-03-26T02:48:19.018Z,68.17
2023-03-26T02:50:54.143Z,68.20
2023-03-26T02:53:41.445Z,68.38
2023-03-26T02:56:29.989Z,68.54
2023-03-26T02:59:18.806Z,68.68
2023-03-26T03:01:48.904Z,68.74
2023-03-26T03:04:18.219Z,68.91
2023-03-26T03:06:47.485Z,69.13
2023-03-26T03:09:15.846Z,69.22
2023-03-26T03:12:06.599Z,69.37
2023-03-26T03:14:34.905Z,69.50
2023-03-26T03:17:02.828Z,69.39
2023-03-26T03:19:31.262Z,69.34
2023-03-26T03:21:59.841Z,69.22
2023-03-26T03:24:28.210Z,69.35
2023-03-26T03:26:57.052Z,69.30
2023-03-26T03:29:48.430Z,69.33
2023-03-26T03:32:34.682Z,69.40
2023-03-26T03:35:05.032Z,69.15
2023-03-26T03:37:33.377Z,69.12
2023-03-26T03:40:01.311Z,68.96
2023-03-26T03:42:33.979Z,68.85
2023-03-26T03:45:04.212Z,68.98
2023-03-26T03:47:58.151Z,69.20
2023-03-26T03:50:35.087Z,69.24
2023-03-26T03:53:26.542Z,69.36
2023-03-26T03:55:56.890Z,69.32
2023-03-26T03:58:31.090Z,69.34
2023-03-26T04:01:04.653Z,69.37
2023-03-26T04:03:59.478Z,69.40
2023-03-26T04:06:39.335Z,69.34
2023-03-26T04:09:09.985Z,69.38
2023-03-26T04:11:38.222Z,69.28
2023-03-26T04:14:14.798Z,69.35
2023-03-26T04:17:05.473Z,69.59
2023-03-26T04:19:35.087Z,69.72
2023-03-26T04:22:03.829Z,69.89
2023-03-26T04:24:40.136Z,70.03
2023-03-26T04:27:28.409Z,70.27
2023-03-26T04:30:03.384Z,70.28
2023-03-26T04:32:34.143Z,69.99
2023-03-26T04:35:03.817Z,69.91
2023-03-26T04:37:39.984Z,69.84
2023-03-26T04:40:15.378Z,69.74
2023-03-26T04:42:54.878Z,69.65
2023-03-26T04:45:48.652Z,69.66
2023-03-26T04:48:16.967Z,69.65
2023-03-26T04:50:45.489Z,69.69
2023-03-26T04:53:15.603Z,69.80
2023-03-26T04:56:06.204Z,70.01
2023-03-26T04:59:00.367Z,69.95
2023-03-26T05:01:30.669Z,70.13
2023-03-26T05:03:58.928Z,70.21
2023-03-26T05:06:34.255Z,70.35
2023-03-26T05:09:05.772Z,70.25
2023-03-26T05:11:54.330Z,70.36
2023-03-26T05:14:23.009Z,70.29
2023-03-26T05:16:53.320Z,70.16
2023-03-26T05:19:22.282Z,70.04
2023-03-26T05:21:50.445Z,69.95
2023-03-26T05:24:19.752Z,69.82
2023-03-26T05:26:47.835Z,69.73
2023-03-26T05:29:17.168Z,69.55
2023-03-26T05:31:49.211Z,69.40
2023-03-26T05:34:17.214Z,69.36
2023-03-26T05:36:45.123Z,69.35
2023-03-26T05:39:35.663Z,69.14
2023-03-26T05:42:12.901Z,69.39
2023-03-26T05:44:56.492Z,69.66
2023-03-26T05:47:27.527Z,69.57
2023-03-26T05:49:55.818Z,69.52
2023-03-26T05:52:24.155Z,69.40
2023-03-26T05:55:10.422Z,69.06
2023-03-26T05:57:56.716Z,68.88
2023-03-26T06:00:48.865Z,68.59
2023-03-26T06:03:19.573Z,67.79
2023-03-26T06:06:15.505Z,67.38
2023-03-26T06:09:01.031Z,66.49
2023-03-26T06:11:31.902Z,65.77
2023-03-26T06:14:00.883Z,64.88
2023-03-26T06:16:28.818Z,63.79
2023-03-26T06:19:19.594Z,62.24
2023-03-26T06:21:58.007Z,61.51
2023-03-26T06:24:31.445Z,61.42
2023-03-26T06:26:59.362Z,61.69
2023-03-26T06:29:45.703Z,61.78
2023-03-26T06:32:20.533Z,61.11
2023-03-26T06:35:11.481Z,60.81
2023-03-26T06:37:39.456Z,60.66
2023-03-26T06:40:08.990Z,60.69
2023-03-26T06:43:08.225Z,60.89
2023-03-26T06:45:57.869Z,60.70
2023-03-26T06:49:03.847Z,60.91
2023-03-26T06:51:43.636Z,60.67
2023-03-26T06:54:30.710Z,60.95
2023-03-26T06:57:05.900Z,61.71
2023-03-26T06:59:57.170Z,62.10
2023-03-26T07:02:43.843Z,62.06
2023-03-26T07:05:30.779Z,62.16
2023-03-26T07:08:17.084Z,62.50
2023-03-26T07:11:03.739Z,62.34
2023-03-26T07:13:37.865Z,62.28
2023-03-26T07:16:24.445Z,62.75
2023-03-26T07:19:00.686Z,61.63
2023-03-26T07:21:33.322Z,61.36
2023-03-26T07:24:03.333Z,61.49
2023-03-26T07:27:10.170Z,61.27
2023-03-26T07:29:57.250Z,60.67
2023-03-26T07:32:47.079Z,60.81
2023-03-26T07:35:44.165Z,59.89
2023-03-26T07:38:56.483Z,59.60
2023-03-26T07:42:18.507Z,60.27
2023-03-26T07:45:17.724Z,60.53
2023-03-26T07:48:17.007Z,60.51
2023-03-26T07:51:03.888Z,60.02
2023-03-26T07:53:52.472Z,59.49
2023-03-26T07:56:46.527Z,59.54
2023-03-26T07:59:52.485Z,59.68
2023-03-26T08:03:01.362Z,59.06
2023-03-26T08:05:57.456Z,59.41
2023-03-26T08:08:32.327Z,59.34
2023-03-26T08:11:34.453Z,60.04
2023-03-26T08:14:17.000Z,59.84
2023-03-26T08:16:51.025Z,59.48
2023-03-26T08:19:27.756Z,58.96
2023-03-26T08:22:02.725Z,58.85
2023-03-26T08:24:31.176Z,59.44
2023-03-26T08:27:01.653Z,58.87
2023-03-26T08:29:39.536Z,58.72
2023-03-26T08:32:12.612Z,58.76
2023-03-26T08:34:41.978Z,59.00
2023-03-26T08:37:10.336Z,59.37
2023-03-26T08:39:39.460Z,58.64
2023-03-26T08:42:19.691Z,57.83
2023-03-26T08:45:06.796Z,57.05
2023-03-26T08:47:44.031Z,56.15
2023-03-26T08:50:12.936Z,56.13
2023-03-26T08:52:57.583Z,55.73
2023-03-26T08:55:31.770Z,54.19
2023-03-26T08:58:14.130Z,54.13
2023-03-26T09:00:42.058Z,53.79
2023-03-26T09:03:13.276Z,53.31
2023-03-26T09:05:41.251Z,53.14
2023-03-26T09:08:30.099Z,51.47
2023-03-26T09:11:17.273Z,51.40
2023-03-26T09:14:19.200Z,51.63
2023-03-26T09:17:06.160Z,51.98
2023-03-26T09:19:52.624Z,52.29
2023-03-26T09:22:36.088Z,51.22
2023-03-26T09:25:03.917Z,50.09
2023-03-26T09:27:43.993Z,50.11
2023-03-26T09:30:17.642Z,50.15
2023-03-26T09:32:52.081Z,50.01
2023-03-26T09:35:26.231Z,50.33
2023-03-26T09:37:56.902Z,50.08
2023-03-26T09:40:38.152Z,49.63
2023-03-26T09:43:26.206Z,48.35
2023-03-26T09:46:03.447Z,47.52
2023-03-26T09:48:31.838Z,49.09
2023-03-26T09:51:13.638Z,49.63
2023-03-26T09:53:57.939Z,49.60
2023-03-26T09:56:50.000Z,49.56
2023-03-26T09:59:41.194Z,48.80
2023-03-26T10:02:46.051Z,49.15
2023-03-26T10:05:30.735Z,48.11
2023-03-26T10:07:58.772Z,47.87
2023-03-26T10:10:26.589Z,47.09
2023-03-26T10:13:11.673Z,46.53
2023-03-26T10:16:01.163Z,46.91
2023-03-26T10:18:45.472Z,46.00
2023-03-26T10:21:28.378Z,44.65
2023-03-26T10:24:22.991Z,44.34
2023-03-26T10:27:09.113Z,43.66
2023-03-26T10:29:42.060Z,44.29
2023-03-26T10:32:28.701Z,43.80
2023-03-26T10:35:09.022Z,43.58
2023-03-26T10:37:55.582Z,43.21
2023-03-26T10:40:43.211Z,42.71
2023-03-26T10:43:19.874Z,43.15
2023-03-26T10:45:48.361Z,43.21
2023-03-26T10:48:16.451Z,43.62
2023-03-26T10:51:02.943Z,43.73
2023-03-26T10:53:36.786Z,43.05
2023-03-26T10:56:17.368Z,42.83
2023-03-26T10:58:49.891Z,42.81
2023-03-26T11:01:23.721Z,42.77
2023-03-26T11:03:54.471Z,41.84
2023-03-26T11:06:23.724Z,41.85
2023-03-26T11:09:12.336Z,40.90
2023-03-26T11:11:58.342Z,41.07
2023-03-26T11:14:43.699Z,41.02
2023-03-26T11:17:40.690Z,41.36
2023-03-26T11:20:33.506Z,41.35
2023-03-26T11:23:08.513Z,42.11
2023-03-26T11:25:55.700Z,42.31
2023-03-26T11:29:03.498Z,42.00
2023-03-26T11:31:43.984Z,41.94
2023-03-26T11:34:15.786Z,41.73
2023-03-26T11:36:47.306Z,40.99
2023-03-26T11:39:20.285Z,40.29
2023-03-26T11:41:49.699Z,40.43
2023-03-26T11:44:32.578Z,41.34
2023-03-26T11:47:04.660Z,41.08
2023-03-26T11:49:33.071Z,41.12
2023-03-26T11:52:01.908Z,41.16
2023-03-26T11:54:29.842Z,41.95
2023-03-26T11:57:05.211Z,41.28
2023-03-26T11:59:55.592Z,41.21
2023-03-26T12:02:34.279Z,41.17
2023-03-26T12:05:14.819Z,40.96
2023-03-26T12:07:48.455Z,40.61
2023-03-26T12:10:24.996Z,40.79
2023-03-26T12:12:56.345Z,42.38
2023-03-26T12:15:24.819Z,43.78
2023-03-26T12:17:57.097Z,45.39
2023-03-26T12:20:25.056Z,45.36
2023-03-26T12:23:00.665Z,46.20
2023-03-26T12:25:34.378Z,46.35
2023-03-26T12:28:14.284Z,45.65
2023-03-26T12:30:45.481Z,45.67
2023-03-26T12:33:19.943Z,46.15
2023-03-26T12:35:49.251Z,45.36
2023-03-26T12:38:23.044Z,44.82
2023-03-26T12:41:04.529Z,44.31
2023-03-26T12:44:54.771Z,44.27
2023-03-26T12:48:00.199Z,43.90
2023-03-26T12:49:28.481Z,44.51
2023-03-26T12:52:00.362Z,44.46
2023-03-26T12:54:33.159Z,44.80
2023-03-26T12:57:13.344Z,44.73
2023-03-26T12:59:41.297Z,44.68
2023-03-26T13:02:26.478Z,44.09
2023-03-26T13:05:15.056Z,43.34
2023-03-26T13:07:43.471Z,43.69
2023-03-26T13:10:23.601Z,44.07
2023-03-26T13:13:03.721Z,43.37
2023-03-26T13:15:34.691Z,43.42
2023-03-26T13:18:03.763Z,43.03
2023-03-26T13:20:46.136Z,42.02
2023-03-26T13:23:17.229Z,41.65
2023-03-26T13:25:48.146Z,41.19
2023-03-26T13:28:34.701Z,40.30
2023-03-26T13:31:11.570Z,38.92
2023-03-26T13:33:45.333Z,38.69
2023-03-26T13:36:23.080Z,38.11
2023-03-26T13:38:58.858Z,37.63
2023-03-26T13:42:00.929Z,37.10
2023-03-26T13:44:29.056Z,36.47
2023-03-26T13:47:00.391Z,35.66
2023-03-26T13:49:28.356Z,35.94
2023-03-26T13:52:00.305Z,35.54
2023-03-26T13:54:34.290Z,35.93
2023-03-26T13:57:14.902Z,35.93
2023-03-26T13:59:43.491Z,35.57
2023-03-26T14:02:20.151Z,35.90
2023-03-26T14:04:51.153Z,35.49
2023-03-26T14:07:23.738Z,35.90
2023-03-26T14:09:56.217Z,36.42
2023-03-26T14:12:24.138Z,35.69
2023-03-26T14:14:56.385Z,35.18
2023-03-26T14:17:27.205Z,35.41
2023-03-26T14:20:07.637Z,35.84
2023-03-26T14:22:41.480Z,36.08
2023-03-26T14:25:22.115Z,36.39
2023-03-26T14:27:59.061Z,36.82
2023-03-26T14:30:33.346Z,36.58
2023-03-26T14:33:10.491Z,35.83
2023-03-26T14:35:47.303Z,35.98
2023-03-26T14:38:35.383Z,36.50
2023-03-26T14:41:13.437Z,36.70
2023-03-26T14:44:11.074Z,36.52
2023-03-26T14:46:42.112Z,35.89
2023-03-26T14:49:31.960Z,35.96
2023-03-26T14:52:20.502Z,36.08
2023-03-26T14:54:50.838Z,36.34
2023-03-26T14:57:28.368Z,36.42
2023-03-26T15:00:03.197Z,36.30
2023-03-26T15:02:31.456Z,35.94
2023-03-26T15:05:09.046Z,35.90
2023-03-26T15:07:45.828Z,36.23
2023-03-26T15:10:32.550Z,36.49
2023-03-26T15:13:35.970Z,37.01
2023-03-26T15:16:27.519Z,37.56
2023-03-26T15:19:14.102Z,38.29
2023-03-26T15:21:59.188Z,38.72
2023-03-26T15:24:27.517Z,38.87
2023-03-26T15:27:13.651Z,38.98
2023-03-26T15:30:00.366Z,38.74
2023-03-26T15:32:41.194Z,38.34
2023-03-26T15:35:09.880Z,38.74
2023-03-26T15:37:49.962Z,38.82
2023-03-26T15:40:26.782Z,38.55
2023-03-26T15:43:08.428Z,38.91
2023-03-26T15:45:56.469Z,38.86
2023-03-26T15:48:27.242Z,38.94
2023-03-26T15:51:04.176Z,38.55
2023-03-26T15:53:33.628Z,38.43
2023-03-26T15:56:18.457Z,38.53
2023-03-26T15:58:48.943Z,38.38
2023-03-26T16:01:34.043Z,38.21
2023-03-26T16:04:01.943Z,38.69
2023-03-26T16:06:37.152Z,38.96
2023-03-26T16:09:07.948Z,39.34
2023-03-26T16:11:55.141Z,39.26
2023-03-26T16:14:24.803Z,39.65
2023-03-26T16:16:52.796Z,39.93
2023-03-26T16:19:20.831Z,39.92
2023-03-26T16:21:57.737Z,40.34
2023-03-26T16:24:27.595Z,40.56
2023-03-26T16:27:26.264Z,40.99
2023-03-26T16:30:00.184Z,41.29
2023-03-26T16:32:29.008Z,41.44
2023-03-26T16:35:02.172Z,41.64
2023-03-26T16:37:43.947Z,41.94
2023-03-26T16:40:20.939Z,42.01
2023-03-26T16:42:49.159Z,42.19
2023-03-26T16:45:40.379Z,42.34
2023-03-26T16:48:28.548Z,42.74
2023-03-26T16:50:59.028Z,42.89
2023-03-26T16:53:32.911Z,42.87
2023-03-26T16:56:26.641Z,43.10
2023-03-26T16:59:25.915Z,43.28
2023-03-26T17:02:00.243Z,43.28
2023-03-26T17:04:29.776Z,43.33
2023-03-26T17:07:02.094Z,43.26
2023-03-26T17:09:36.614Z,43.31
2023-03-26T17:12:13.225Z,43.34
2023-03-26T17:14:59.566Z,43.40
2023-03-26T17:17:30.667Z,43.55
2023-03-26T17:20:11.939Z,43.57
2023-03-26T17:22:47.966Z,43.47
2023-03-26T17:25:28.351Z,43.55
2023-03-26T17:28:28.971Z,43.38
2023-03-26T17:30:59.883Z,43.64
2023-03-26T17:33:32.706Z,43.49
2023-03-26T17:36:12.908Z,43.45
2023-03-26T17:38:44.898Z,43.66
2023-03-26T17:41:33.651Z,43.73
2023-03-26T17:44:05.783Z,43.77
2023-03-26T17:46:33.575Z,44.00
2023-03-26T17:49:16.301Z,44.27
2023-03-26T17:52:01.633Z,44.44
2023-03-26T17:54:35.439Z,44.46
2023-03-26T17:57:06.473Z,44.53
2023-03-26T17:59:38.815Z,44.66
2023-03-26T18:02:13.707Z,45.13
2023-03-26T18:04:45.047Z,45.42
2023-03-26T18:07:20.063Z,45.29
2023-03-26T18:10:06.438Z,45.42
2023-03-26T18:12:34.543Z,45.67
2023-03-26T18:15:14.575Z,45.69
2023-03-26T18:17:44.279Z,45.80
2023-03-26T18:20:27.012Z,46.05
2023-03-26T18:22:55.141Z,46.19
2023-03-26T18:25:22.950Z,46.39
2023-03-26T18:27:51.509Z,46.50
2023-03-26T18:30:21.196Z,46.55
2023-03-26T18:32:52.731Z,46.67
2023-03-26T18:35:23.341Z,46.91
2023-03-26T18:37:53.798Z,46.93
2023-03-26T18:40:22.732Z,47.03
2023-03-26T18:42:55.794Z,47.13
2023-03-26T18:45:29.186Z,47.34
2023-03-26T18:47:58.397Z,47.40
2023-03-26T18:50:34.751Z,47.42
2023-03-26T18:53:03.868Z,47.49
2023-03-26T18:55:33.710Z,47.51
2023-03-26T18:58:10.755Z,47.43
2023-03-26T19:00:40.149Z,47.46
2023-03-26T19:03:08.224Z,47.50
2023-03-26T19:05:36.658Z,47.54
2023-03-26T19:08:05.489Z,47.60
2023-03-26T19:10:33.306Z,47.57
2023-03-26T19:13:02.304Z,47.59
2023-03-26T19:15:31.988Z,47.69
2023-03-26T19:18:07.136Z,48.03
2023-03-26T19:20:43.355Z,48.10
2023-03-26T19:23:16.074Z,48.35
2023-03-26T19:25:52.835Z,48.46
2023-03-26T19:28:26.260Z,48.58
2023-03-26T19:30:57.466Z,48.90
2023-03-26T19:33:32.943Z,49.05
2023-03-26T19:36:06.133Z,49.31
2023-03-26T19:38:53.434Z,49.38
2023-03-26T19:41:26.772Z,49.56
2023-03-26T19:43:56.167Z,49.64
2023-03-26T19:46:25.222Z,49.83
2023-03-26T19:48:55.343Z,49.98
2023-03-26T19:51:32.523Z,50.09
2023-03-26T19:54:03.330Z,50.17
2023-03-26T19:56:31.608Z,50.41
2023-03-26T19:58:59.436Z,50.49
2023-03-26T20:01:29.553Z,50.70
2023-03-26T20:04:06.327Z,50.58
2023-03-26T20:06:43.154Z,50.59
2023-03-26T20:09:12.343Z,50.67
2023-03-26T20:11:40.887Z,50.69
2023-03-26T20:14:13.914Z,50.85
2023-03-26T20:16:43.869Z,50.92
2023-03-26T20:19:14.105Z,50.94
2023-03-26T20:21:42.789Z,51.15
2023-03-26T20:24:15.103Z,51.19
2023-03-26T20:26:43.720Z,51.38
2023-03-26T20:29:12.919Z,51.43
2023-03-26T20:31:41.942Z,51.56
2023-03-26T20:34:18.027Z,51.82
2023-03-26T20:36:46.789Z,52.02
2023-03-26T20:39:14.884Z,52.19
2023-03-26T20:41:50.192Z,52.27
2023-03-26T20:44:19.225Z,52.32
2023-03-26T20:46:48.554Z,52.41
2023-03-26T20:49:18.294Z,52.44
2023-03-26T20:51:46.692Z,52.62
2023-03-26T20:54:17.723Z,52.61
2023-03-26T20:56:48.027Z,52.65
2023-03-26T20:59:21.724Z,52.70
2023-03-26T21:01:50.403Z,52.70
2023-03-26T21:04:19.265Z,52.70
2023-03-26T21:06:47.146Z,52.69
2023-03-26T21:09:17.878Z,52.62
2023-03-26T21:11:45.889Z,52.61
2023-03-26T21:14:13.825Z,52.48
2023-03-26T21:16:42.392Z,52.31
2023-03-26T21:19:10.528Z,51.96
2023-03-26T21:21:50.979Z,52.02
2023-03-26T21:24:35.111Z,52.11
2023-03-26T21:27:09.916Z,52.16
2023-03-26T21:29:38.117Z,52.40
2023-03-26T21:32:06.130Z,52.48
2023-03-26T21:34:35.082Z,52.57
2023-03-26T21:37:04.209Z,52.75
2023-03-26T21:39:32.184Z,52.83
2023-03-26T21:42:04.720Z,52.85
2023-03-26T21:44:34.124Z,52.84
2023-03-26T21:47:02.468Z,52.85
2023-03-26T21:49:30.526Z,52.85
2023-03-26T21:51:58.400Z,52.87
2023-03-26T21:54:31.060Z,52.74
2023-03-26T21:56:58.882Z,52.55
2023-03-26T21:59:35.335Z,52.61
2023-03-26T22:02:26.481Z,52.44
2023-03-26T22:04:57.292Z,52.30
2023-03-26T22:07:34.637Z,52.25
2023-03-26T22:10:02.486Z,52.31
2023-03-26T22:12:30.178Z,52.19
2023-03-26T22:14:58.327Z,52.09
2023-03-26T22:17:26.155Z,52.05
2023-03-26T22:19:56.047Z,51.93
2023-03-26T22:22:26.227Z,51.82
2023-03-26T22:24:54.211Z,51.91
2023-03-26T22:27:22.096Z,51.83
2023-03-26T22:29:50.185Z,51.87
2023-03-26T22:32:17.913Z,51.94
2023-03-26T22:34:45.972Z,52.04
2023-03-26T22:37:13.764Z,51.97
2023-03-26T22:39:41.619Z,51.73
2023-03-26T22:42:09.543Z,51.80
2023-03-26T22:44:37.573Z,51.55
2023-03-26T22:47:05.639Z,51.47
2023-03-26T22:49:33.509Z,51.43
2023-03-26T22:52:01.916Z,51.19
2023-03-26T22:54:29.713Z,51.28
2023-03-26T22:56:57.597Z,51.27
2023-03-26T22:59:25.863Z,51.21
2023-03-26T23:01:54.276Z,50.98
2023-03-26T23:04:31.698Z,50.92
2023-03-26T23:07:00.827Z,50.83
2023-03-26T23:09:29.564Z,50.68
2023-03-26T23:11:58.483Z,50.46
2023-03-26T23:14:26.278Z,50.40
2023-03-26T23:16:54.969Z,50.65
2023-03-26T23:19:22.916Z,50.83
2023-03-26T23:21:51.081Z,51.01
2023-03-26T23:24:18.870Z,51.14
2023-03-26T23:29:17.444Z,51.42
2023-03-26T23:31:45.650Z,51.63
2023-03-26T23:34:14.227Z,51.73
2023-03-26T23:36:42.353Z,51.74
2023-03-26T23:39:11.061Z,51.83
2023-03-26T23:41:38.741Z,51.75
2023-03-26T23:44:07.059Z,51.65
2023-03-26T23:46:35.471Z,51.75
2023-03-26T23:49:03.692Z,51.88
2023-03-26T23:51:32.419Z,51.92
2023-03-26T23:54:00.746Z,51.84
2023-03-26T23:56:29.928Z,51.92
2023-03-26T23:58:59.126Z,52.16
